createdAt,value
2023-03-28T00:01:09.261Z,1.24
2023-03-28T00:03:40.179Z,1.09
2023-03-28T00:06:11.052Z,1.17
2023-03-28T00:08:40.199Z,1.12
2023-03-28T00:11:09.844Z,1.14
2023-03-28T00:13:37.603Z,1.13
2023-03-28T00:16:08.246Z,1.09
2023-03-28T00:18:37.586Z,1.16
2023-03-28T00:21:10.051Z,1.03
2023-03-28T00:23:37.638Z,1.07
2023-03-28T00:26:07.855Z,1.18
2023-03-28T00:28:36.364Z,1.06
2023-03-28T00:31:05.300Z,1.01
2023-03-28T00:33:32.935Z,1.09
2023-03-28T00:36:00.765Z,1.11
2023-03-28T00:38:29.832Z,1.02
2023-03-28T00:40:57.734Z,1.05
2023-03-28T00:43:40.144Z,1.04
2023-03-28T00:46:12.309Z,0.98
2023-03-28T00:48:50.716Z,0.92
2023-03-28T00:51:20.412Z,1.04
2023-03-28T00:53:50.190Z,1.01
2023-03-28T00:56:20.781Z,1.05
2023-03-28T00:58:49.119Z,0.89
2023-03-28T01:01:17.730Z,0.93
2023-03-28T01:03:48.753Z,1.05
2023-03-28T01:06:16.998Z,0.94
2023-03-28T01:08:47.581Z,1.11
2023-03-28T01:11:18.250Z,1.03
2023-03-28T01:13:48.273Z,1.00
2023-03-28T01:16:16.408Z,1.01
2023-03-28T01:18:47.024Z,1.05
2023-03-28T01:21:31.331Z,1.01
2023-03-28T01:24:34.056Z,0.88
2023-03-28T01:27:07.046Z,1.00
2023-03-28T01:30:03.596Z,0.99
2023-03-28T01:33:31.454Z,0.97
2023-03-28T01:36:39.386Z,0.95
2023-03-28T01:39:10.377Z,0.95
2023-03-28T01:41:43.040Z,0.97
2023-03-28T01:44:13.543Z,1.07
2023-03-28T01:46:45.879Z,1.00
2023-03-28T01:49:18.472Z,1.01
2023-03-28T01:51:52.838Z,1.02
2023-03-28T01:54:30.053Z,1.03
2023-03-28T01:57:03.205Z,1.01
2023-03-28T01:59:38.225Z,1.18
2023-03-28T02:02:28.383Z,1.09
2023-03-28T02:05:02.035Z,1.04
2023-03-28T02:07:33.784Z,1.06
2023-03-28T02:10:22.855Z,1.12
2023-03-28T02:13:03.627Z,1.16
2023-03-28T02:15:55.504Z,0.98
2023-03-28T02:18:45.573Z,1.03
2023-03-28T02:21:37.700Z,1.03
2023-03-28T02:24:12.583Z,1.07
2023-03-28T02:26:54.252Z,1.07
2023-03-28T02:29:43.163Z,1.00
2023-03-28T02:32:17.432Z,1.06
2023-03-28T02:34:47.279Z,0.98
2023-03-28T02:37:25.771Z,1.08
2023-03-28T02:40:03.657Z,1.17
2023-03-28T02:42:51.419Z,1.03
2023-03-28T02:45:27.864Z,1.07
2023-03-28T02:48:02.835Z,1.14
2023-03-28T02:50:36.175Z,1.09
2023-03-28T02:53:06.280Z,1.11
2023-03-28T02:55:39.278Z,1.11
2023-03-28T02:58:17.470Z,1.15
2023-03-28T03:00:45.087Z,1.13
2023-03-28T03:03:13.976Z,1.04
2023-03-28T03:05:41.539Z,1.09
2023-03-28T03:08:09.205Z,0.98
2023-03-28T03:10:38.096Z,1.05
2023-03-28T03:13:05.647Z,1.16
2023-03-28T03:15:35.597Z,1.11
2023-03-28T03:18:23.396Z,1.16
2023-03-28T03:20:51.351Z,1.24
2023-03-28T03:23:18.911Z,1.18
2023-03-28T03:25:50.514Z,1.21
2023-03-28T03:28:31.524Z,1.19
2023-03-28T03:31:01.201Z,1.00
2023-03-28T03:33:48.486Z,1.04
2023-03-28T03:36:20.899Z,0.98
2023-03-28T03:38:48.561Z,1.04
2023-03-28T03:41:22.964Z,1.09
2023-03-28T03:43:50.427Z,1.08
2023-03-28T03:46:18.194Z,1.01
2023-03-28T03:48:49.245Z,1.04
2023-03-28T03:51:18.181Z,1.04
2023-03-28T03:53:46.646Z,1.06
2023-03-28T03:56:17.519Z,0.98
2023-03-28T03:58:54.752Z,1.07
2023-03-28T04:01:25.861Z,1.07
2023-03-28T04:03:54.817Z,1.06
2023-03-28T04:06:29.461Z,1.08
2023-03-28T04:08:57.245Z,1.09
2023-03-28T04:11:41.959Z,1.14
2023-03-28T04:14:10.906Z,1.08
2023-03-28T04:16:41.072Z,1.06
2023-03-28T04:19:10.745Z,1.10
2023-03-28T04:21:42.852Z,1.10
2023-03-28T04:24:15.374Z,1.13
2023-03-28T04:26:50.153Z,1.11
2023-03-28T04:29:25.267Z,1.06
2023-03-28T04:32:12.868Z,1.03
2023-03-28T04:35:01.217Z,1.06
2023-03-28T04:37:28.726Z,1.18
2023-03-28T04:40:04.384Z,1.17
2023-03-28T04:42:42.303Z,1.21
2023-03-28T04:45:17.681Z,1.22
2023-03-28T04:47:46.782Z,1.15
2023-03-28T04:50:19.283Z,1.25
2023-03-28T04:52:46.955Z,1.33
2023-03-28T04:55:17.067Z,1.18
2023-03-28T04:57:46.438Z,1.18
2023-03-28T05:00:16.897Z,1.25
2023-03-28T05:02:57.596Z,1.23
2023-03-28T05:05:27.393Z,1.17
2023-03-28T05:07:56.312Z,1.17
2023-03-28T05:10:24.167Z,1.20
2023-03-28T05:12:58.558Z,1.24
2023-03-28T05:15:28.540Z,1.23
2023-03-28T05:18:03.587Z,1.18
2023-03-28T05:20:35.963Z,1.17
2023-03-28T05:23:05.990Z,1.25
2023-03-28T05:25:35.073Z,1.31
2023-03-28T05:28:02.912Z,1.23
2023-03-28T05:30:32.782Z,1.28
2023-03-28T05:33:01.461Z,1.28
2023-03-28T05:35:30.509Z,1.47
2023-03-28T05:37:58.437Z,1.43
2023-03-28T05:40:25.984Z,1.49
2023-03-28T05:42:53.530Z,1.35
2023-03-28T05:45:21.865Z,1.48
2023-03-28T05:47:54.407Z,1.50
2023-03-28T05:50:23.459Z,1.54
2023-03-28T05:52:52.025Z,1.42
2023-03-28T05:55:20.335Z,1.51
2023-03-28T05:57:48.554Z,1.55
2023-03-28T06:00:19.657Z,1.49
2023-03-28T06:02:47.194Z,1.62
2023-03-28T06:05:19.710Z,1.66
2023-03-28T06:07:47.744Z,1.72
2023-03-28T06:10:17.431Z,1.61
2023-03-28T06:12:56.344Z,1.61
2023-03-28T06:15:24.984Z,1.72
2023-03-28T06:17:52.652Z,1.62
2023-03-28T06:20:21.569Z,1.53
2023-03-28T06:22:54.070Z,1.79
2023-03-28T06:25:21.597Z,1.75
2023-03-28T06:27:49.604Z,1.82
2023-03-28T06:30:18.213Z,1.86
2023-03-28T06:32:50.783Z,1.92
2023-03-28T06:35:18.508Z,1.97
2023-03-28T06:37:47.437Z,2.06
2023-03-28T06:40:19.141Z,2.14
2023-03-28T06:42:46.787Z,2.11
2023-03-28T06:45:23.986Z,2.14
2023-03-28T06:47:59.711Z,2.14
2023-03-28T06:50:50.102Z,2.16
2023-03-28T06:53:22.360Z,2.07
2023-03-28T06:55:50.863Z,2.03
2023-03-28T06:58:18.432Z,2.12
2023-03-28T07:00:54.340Z,2.08
2023-03-28T07:03:38.712Z,2.13
2023-03-28T07:06:08.644Z,2.05
2023-03-28T07:08:39.602Z,2.17
2023-03-28T07:11:07.984Z,2.13
2023-03-28T07:13:35.588Z,2.18
2023-03-28T07:16:08.238Z,2.05
2023-03-28T07:18:36.134Z,2.16
2023-03-28T07:21:08.121Z,2.23
2023-03-28T07:23:36.312Z,2.19
2023-03-28T07:26:06.044Z,2.16
2023-03-28T07:28:33.774Z,2.16
2023-03-28T07:31:04.548Z,2.31
2023-03-28T07:33:37.674Z,2.33
2023-03-28T07:36:13.186Z,2.53
2023-03-28T07:38:41.955Z,2.56
2023-03-28T07:41:11.359Z,2.72
2023-03-28T07:43:40.148Z,2.48
2023-03-28T07:46:09.085Z,2.47
2023-03-28T07:48:37.560Z,2.58
2023-03-28T07:51:06.432Z,2.52
2023-03-28T07:53:34.904Z,2.53
2023-03-28T07:56:02.536Z,2.55
2023-03-28T07:58:40.923Z,2.69
2023-03-28T08:01:12.192Z,2.61
2023-03-28T08:03:46.645Z,2.62
2023-03-28T08:06:31.115Z,2.67
2023-03-28T08:09:01.893Z,2.69
2023-03-28T08:11:42.244Z,2.85
2023-03-28T08:14:13.025Z,2.99
2023-03-28T08:16:41.070Z,3.07
2023-03-28T08:19:11.814Z,3.32
2023-03-28T08:22:03.373Z,3.48
2023-03-28T08:24:40.316Z,3.45
2023-03-28T08:27:12.207Z,3.11
2023-03-28T08:29:42.199Z,2.90
2023-03-28T08:32:10.685Z,3.00
2023-03-28T08:34:40.563Z,2.87
2023-03-28T08:37:14.710Z,2.76
2023-03-28T08:39:44.931Z,2.98
2023-03-28T08:42:31.395Z,3.20
2023-03-28T08:45:09.925Z,3.50
2023-03-28T08:47:39.012Z,3.09
2023-03-28T08:50:14.117Z,2.93
2023-03-28T08:52:42.447Z,3.11
2023-03-28T08:55:23.866Z,3.20
2023-03-28T08:57:53.115Z,3.48
2023-03-28T09:00:24.621Z,3.37
2023-03-28T09:02:52.556Z,3.51
2023-03-28T09:05:25.362Z,3.51
2023-03-28T09:08:03.454Z,3.30
2023-03-28T09:10:35.942Z,3.27
2023-03-28T09:13:21.234Z,3.27
2023-03-28T09:16:02.400Z,3.28
2023-03-28T09:18:43.617Z,3.46
2023-03-28T09:21:15.346Z,3.68
2023-03-28T09:23:56.200Z,3.98
2023-03-28T09:26:55.148Z,4.18
2023-03-28T09:29:25.529Z,4.03
2023-03-28T09:31:57.367Z,3.91
2023-03-28T09:34:29.276Z,3.75
2023-03-28T09:37:05.545Z,3.57
2023-03-28T09:39:37.750Z,3.55
2023-03-28T09:42:12.252Z,3.66
2023-03-28T09:44:54.822Z,3.86
2023-03-28T09:47:44.691Z,4.14
2023-03-28T09:50:14.866Z,4.38
2023-03-28T09:52:47.625Z,4.16
2023-03-28T09:55:18.031Z,3.90
2023-03-28T09:58:03.648Z,3.99
2023-03-28T10:00:36.556Z,3.95
2023-03-28T10:03:34.770Z,4.16
2023-03-28T10:06:19.524Z,4.06
2023-03-28T10:08:48.165Z,4.14
2023-03-28T10:11:28.463Z,4.22
2023-03-28T10:13:57.583Z,4.29
2023-03-28T10:16:29.478Z,4.34
2023-03-28T10:19:14.460Z,4.30
2023-03-28T10:22:03.477Z,4.18
2023-03-28T10:24:34.057Z,4.18
2023-03-28T10:27:08.692Z,4.33
2023-03-28T10:29:38.019Z,4.43
2023-03-28T10:32:06.800Z,4.13
2023-03-28T10:34:42.412Z,4.40
2023-03-28T10:37:24.913Z,4.39
2023-03-28T10:40:26.029Z,4.41
2023-03-28T10:43:21.388Z,4.32
2023-03-28T10:46:15.498Z,4.34
2023-03-28T10:48:59.616Z,4.13
2023-03-28T10:51:32.599Z,4.01
2023-03-28T10:54:16.073Z,4.09
2023-03-28T10:56:50.414Z,4.24
2023-03-28T10:59:31.919Z,4.51
2023-03-28T11:02:13.118Z,4.89
2023-03-28T11:04:54.913Z,5.39
2023-03-28T11:07:31.217Z,5.30
2023-03-28T11:10:15.748Z,5.15
2023-03-28T11:13:18.242Z,5.33
2023-03-28T11:15:50.803Z,5.37
2023-03-28T11:18:45.680Z,5.38
2023-03-28T11:21:28.520Z,5.40
2023-03-28T11:24:07.021Z,5.34
2023-03-28T11:27:04.998Z,5.33
2023-03-28T11:29:56.108Z,5.45
2023-03-28T11:32:31.502Z,5.26
2023-03-28T11:35:04.293Z,5.11
2023-03-28T11:37:35.068Z,5.20
2023-03-28T11:40:12.010Z,5.19
2023-03-28T11:42:52.623Z,4.86
2023-03-28T11:45:37.845Z,4.85
2023-03-28T11:48:20.417Z,5.16
2023-03-28T11:50:58.158Z,4.96
2023-03-28T11:53:37.478Z,4.83
2023-03-28T11:56:13.145Z,4.64
2023-03-28T11:59:02.745Z,4.95
2023-03-28T12:01:33.074Z,5.41
2023-03-28T12:04:05.198Z,5.73
2023-03-28T12:06:37.278Z,5.91
2023-03-28T12:09:11.634Z,6.05
2023-03-28T12:11:44.533Z,6.14
2023-03-28T12:14:36.665Z,6.08
2023-03-28T12:17:16.814Z,5.71
2023-03-28T12:19:48.438Z,5.76
2023-03-28T12:22:21.368Z,5.66
2023-03-28T12:24:55.756Z,5.33
2023-03-28T12:27:43.816Z,5.35
2023-03-28T12:30:22.521Z,5.62
2023-03-28T12:32:59.543Z,5.94
2023-03-28T12:35:34.236Z,6.03
2023-03-28T12:38:24.301Z,6.30
2023-03-28T12:41:03.851Z,6.40
2023-03-28T12:43:45.965Z,6.29
2023-03-28T12:46:22.164Z,5.98
2023-03-28T12:48:53.026Z,6.20
2023-03-28T12:51:30.216Z,6.06
2023-03-28T12:54:03.487Z,5.93
2023-03-28T12:56:32.319Z,5.80
2023-03-28T12:59:01.883Z,5.72
2023-03-28T13:01:46.853Z,5.75
2023-03-28T13:04:44.640Z,5.97
2023-03-28T13:07:26.616Z,6.13
2023-03-28T13:10:00.811Z,6.29
2023-03-28T13:12:35.778Z,5.88
2023-03-28T13:15:26.086Z,6.05
2023-03-28T13:18:25.374Z,6.28
2023-03-28T13:20:53.532Z,6.33
2023-03-28T13:23:28.978Z,6.20
2023-03-28T13:25:57.250Z,6.03
2023-03-28T13:28:30.847Z,6.30
2023-03-28T13:31:08.518Z,6.63
2023-03-28T13:33:38.114Z,6.76
2023-03-28T13:36:27.067Z,6.59
2023-03-28T13:39:22.928Z,6.57
2023-03-28T13:41:58.778Z,6.50
2023-03-28T13:44:31.119Z,6.13
2023-03-28T13:47:00.086Z,6.20
2023-03-28T13:49:36.298Z,6.00
2023-03-28T13:52:06.646Z,5.95
2023-03-28T13:54:34.588Z,6.24
2023-03-28T13:57:03.558Z,6.35
2023-03-28T13:59:36.296Z,6.45
2023-03-28T14:02:17.651Z,6.43
2023-03-28T14:04:52.754Z,6.18
2023-03-28T14:07:25.321Z,5.91
2023-03-28T14:09:53.581Z,6.10
2023-03-28T14:12:21.635Z,5.99
2023-03-28T14:14:50.787Z,6.03
2023-03-28T14:17:21.521Z,5.85
2023-03-28T14:19:51.625Z,6.02
2023-03-28T14:24:51.114Z,5.98
2023-03-28T14:27:29.006Z,5.74
2023-03-28T14:29:58.739Z,5.97
2023-03-28T14:32:31.882Z,6.06
2023-03-28T14:35:17.350Z,6.04
2023-03-28T14:37:48.882Z,5.94
2023-03-28T14:40:21.577Z,5.93
2023-03-28T14:42:49.418Z,5.87
2023-03-28T14:45:17.136Z,5.84
2023-03-28T14:47:46.266Z,5.84
2023-03-28T14:50:15.292Z,5.84
2023-03-28T14:52:44.533Z,5.88
2023-03-28T14:55:17.581Z,5.72
2023-03-28T14:57:46.245Z,5.70
2023-03-28T15:00:17.815Z,5.83
2023-03-28T15:02:47.652Z,5.95
2023-03-28T15:05:16.900Z,6.12
2023-03-28T15:07:44.574Z,6.17
2023-03-28T15:10:13.633Z,6.27
2023-03-28T15:12:44.788Z,6.21
2023-03-28T15:15:17.497Z,6.27
2023-03-28T15:17:47.225Z,6.43
2023-03-28T15:20:18.012Z,6.37
2023-03-28T15:22:48.091Z,6.28
2023-03-28T15:28:28.016Z,6.27
2023-03-28T15:30:57.647Z,6.22
2023-03-28T15:33:26.774Z,6.24
2023-03-28T15:36:07.238Z,6.22
2023-03-28T15:38:39.266Z,6.30
2023-03-28T15:41:12.110Z,6.44
2023-03-28T15:43:41.300Z,6.42
2023-03-28T15:46:11.594Z,6.44
2023-03-28T15:48:42.008Z,6.46
2023-03-28T15:51:12.620Z,6.44
2023-03-28T15:53:41.480Z,6.43
2023-03-28T15:56:13.265Z,6.46
2023-03-28T15:58:45.479Z,6.54
2023-03-28T16:01:23.220Z,6.46
2023-03-28T16:03:52.889Z,6.40
2023-03-28T16:06:31.715Z,6.48
2023-03-28T16:09:15.601Z,6.42
2023-03-28T16:11:44.220Z,6.37
2023-03-28T16:14:30.719Z,6.34
2023-03-28T16:17:16.646Z,6.31
2023-03-28T16:19:54.123Z,6.09
2023-03-28T16:22:21.923Z,6.17
2023-03-28T16:24:50.157Z,6.35
2023-03-28T16:27:18.157Z,6.18
2023-03-28T16:29:46.341Z,6.14
2023-03-28T16:32:14.815Z,6.04
2023-03-28T16:34:43.208Z,5.97
2023-03-28T16:37:12.129Z,6.00
2023-03-28T16:39:39.668Z,5.90
2023-03-28T16:42:07.366Z,6.02
2023-03-28T16:44:35.303Z,5.95
2023-03-28T16:47:03.444Z,5.87
2023-03-28T16:49:31.130Z,5.87
2023-03-28T16:51:58.669Z,5.93
2023-03-28T16:54:27.712Z,6.00
2023-03-28T16:56:55.299Z,5.85
2023-03-28T16:59:23.503Z,5.86
2023-03-28T17:01:51.503Z,5.70
2023-03-28T17:04:19.098Z,5.73
2023-03-28T17:06:46.750Z,5.62
2023-03-28T17:09:16.381Z,5.52
2023-03-28T17:11:45.440Z,5.45
2023-03-28T17:14:12.958Z,5.42
2023-03-28T17:16:40.631Z,5.44
2023-03-28T17:19:08.603Z,5.47
2023-03-28T17:21:37.562Z,5.42
2023-03-28T17:24:09.161Z,5.35
2023-03-28T17:26:36.746Z,5.36
2023-03-28T17:29:07.449Z,5.31
2023-03-28T17:31:35.300Z,5.34
2023-03-28T17:34:03.697Z,5.34
2023-03-28T17:36:31.564Z,5.29
2023-03-28T17:39:00.106Z,5.21
2023-03-28T17:41:27.949Z,5.11
2023-03-28T17:43:58.330Z,4.99
2023-03-28T17:46:27.982Z,4.96
2023-03-28T17:48:55.995Z,4.93
2023-03-28T17:51:23.909Z,4.93
2023-03-28T17:53:51.527Z,4.95
2023-03-28T17:56:19.037Z,4.91
2023-03-28T17:58:47.288Z,4.75
2023-03-28T18:01:17.207Z,4.73
2023-03-28T18:03:46.739Z,4.72
2023-03-28T18:06:37.136Z,4.70
2023-03-28T18:09:05.198Z,4.64
2023-03-28T18:11:32.957Z,4.54
2023-03-28T18:14:00.609Z,4.47
2023-03-28T18:16:29.091Z,4.47
2023-03-28T18:18:58.311Z,4.45
2023-03-28T18:21:26.074Z,4.46
2023-03-28T18:23:54.272Z,4.39
2023-03-28T18:26:22.556Z,4.42
2023-03-28T18:28:50.033Z,4.34
2023-03-28T18:31:19.971Z,4.29
2023-03-28T18:33:47.702Z,4.23
2023-03-28T18:36:16.614Z,4.23
2023-03-28T18:38:45.165Z,4.34
2023-03-28T18:41:13.471Z,4.18
2023-03-28T18:43:42.126Z,4.12
2023-03-28T18:48:41.057Z,4.01
2023-03-28T18:51:09.372Z,3.94
2023-03-28T18:53:38.673Z,3.95
2023-03-28T18:56:06.919Z,3.92
2023-03-28T18:58:36.668Z,3.80
2023-03-28T19:01:04.552Z,3.87
2023-03-28T19:03:35.420Z,3.86
2023-03-28T19:06:04.254Z,3.75
2023-03-28T19:08:32.568Z,3.72
2023-03-28T19:11:07.361Z,3.85
2023-03-28T19:13:35.295Z,3.63
2023-03-28T19:16:04.021Z,3.65
2023-03-28T19:18:32.237Z,3.57
2023-03-28T19:21:01.044Z,3.62
2023-03-28T19:23:29.434Z,3.64
2023-03-28T19:25:57.250Z,3.56
2023-03-28T19:28:26.160Z,3.53
2023-03-28T19:31:01.296Z,3.64
2023-03-28T19:33:29.324Z,3.44
2023-03-28T19:35:57.314Z,3.40
2023-03-28T19:38:25.894Z,3.43
2023-03-28T19:40:57.952Z,3.49
2023-03-28T19:43:27.216Z,3.57
2023-03-28T19:45:55.125Z,3.62
2023-03-28T19:48:22.685Z,3.56
2023-03-28T19:50:50.662Z,3.79
2023-03-28T19:53:18.258Z,3.74
2023-03-28T19:55:52.050Z,3.60
2023-03-28T19:58:19.595Z,3.46
2023-03-28T20:00:48.669Z,3.26
2023-03-28T20:03:16.376Z,3.08
2023-03-28T20:05:48.111Z,3.05
2023-03-28T20:08:17.412Z,2.87
2023-03-28T20:10:46.845Z,2.96
2023-03-28T20:13:14.610Z,2.98
2023-03-28T20:15:43.474Z,2.94
2023-03-28T20:18:14.387Z,2.93
2023-03-28T20:20:42.679Z,2.94
2023-03-28T20:23:11.591Z,3.02
2023-03-28T20:25:39.184Z,3.03
2023-03-28T20:28:09.866Z,3.08
2023-03-28T20:30:37.696Z,3.14
2023-03-28T20:33:05.901Z,3.20
2023-03-28T20:35:35.312Z,3.24
2023-03-28T20:38:02.949Z,3.12
2023-03-28T20:40:30.542Z,3.00
2023-03-28T20:43:01.805Z,2.97
2023-03-28T20:45:29.792Z,2.93
2023-03-28T20:48:00.828Z,2.98
2023-03-28T20:50:34.105Z,3.00
2023-03-28T20:53:04.507Z,2.91
2023-03-28T20:55:32.933Z,2.86
2023-03-28T20:58:01.418Z,2.86
2023-03-28T21:00:30.161Z,2.91
2023-03-28T21:02:57.795Z,3.01
2023-03-28T21:05:27.106Z,3.16
2023-03-28T21:07:55.406Z,3.12
2023-03-28T21:10:24.243Z,2.97
2023-03-28T21:12:52.126Z,3.02
2023-03-28T21:15:19.667Z,2.84
2023-03-28T21:17:49.376Z,2.93
2023-03-28T21:20:18.868Z,3.04
2023-03-28T21:22:46.333Z,2.98
2023-03-28T21:25:14.185Z,2.98
2023-03-28T21:27:43.165Z,3.02
2023-03-28T21:30:13.371Z,3.00
2023-03-28T21:32:41.454Z,3.09
2023-03-28T21:35:10.259Z,3.06
2023-03-28T21:37:37.857Z,3.04
2023-03-28T21:40:08.479Z,3.08
2023-03-28T21:42:36.253Z,3.09
2023-03-28T21:45:06.129Z,3.05
2023-03-28T21:47:33.746Z,2.96
2023-03-28T21:50:02.901Z,3.03
2023-03-28T21:52:30.433Z,3.06
2023-03-28T21:54:57.941Z,3.07
2023-03-28T21:57:25.648Z,3.08
2023-03-28T21:59:53.174Z,3.13
2023-03-28T22:02:22.023Z,3.05
2023-03-28T22:04:49.546Z,3.10
2023-03-28T22:07:17.037Z,3.14
2023-03-28T22:09:44.611Z,3.14
2023-03-28T22:12:12.122Z,3.00
2023-03-28T22:14:39.620Z,2.71
2023-03-28T22:17:07.243Z,2.75
2023-03-28T22:19:37.863Z,2.89
2023-03-28T22:22:05.546Z,2.83
2023-03-28T22:24:33.123Z,2.79
2023-03-28T22:27:00.619Z,2.81
2023-03-28T22:29:28.269Z,2.92
2023-03-28T22:31:56.941Z,2.92
2023-03-28T22:34:24.448Z,2.83
2023-03-28T22:36:54.910Z,2.79
2023-03-28T22:39:22.619Z,2.73
2023-03-28T22:41:50.998Z,2.77
2023-03-28T22:44:21.644Z,2.74
2023-03-28T22:46:49.425Z,2.75
2023-03-28T22:49:22.004Z,2.74
2023-03-28T22:51:50.018Z,2.73
2023-03-28T22:54:21.096Z,2.74
2023-03-28T22:56:49.014Z,2.84
2023-03-28T22:59:16.957Z,2.86
2023-03-28T23:01:45.309Z,2.78
2023-03-28T23:04:13.282Z,2.79
2023-03-28T23:06:41.492Z,2.83
2023-03-28T23:09:09.295Z,2.83
2023-03-28T23:11:38.122Z,2.77
2023-03-28T23:14:06.071Z,2.83
2023-03-28T23:16:33.875Z,2.84
2023-03-28T23:19:01.449Z,2.78
2023-03-28T23:21:29.210Z,2.84
2023-03-28T23:23:56.746Z,2.91
2023-03-28T23:26:24.301Z,2.82
2023-03-28T23:28:53.134Z,2.87
2023-03-28T23:31:20.922Z,2.80
2023-03-28T23:33:48.527Z,2.77
2023-03-28T23:36:20.130Z,2.82
2023-03-28T23:38:48.021Z,2.79
2023-03-28T23:41:15.522Z,2.83
2023-03-28T23:43:43.074Z,2.77
2023-03-28T23:46:12.093Z,2.84
2023-03-28T23:48:39.562Z,2.80
2023-03-28T23:51:07.693Z,2.78
2023-03-28T23:53:35.305Z,2.77
2023-03-28T23:56:03.690Z,2.77
2023-03-28T23:58:31.237Z,2.83
